Airfield :
LOGIN :

Register | Disclaimer

   EN    FR    IT 

 










Legend :    VFR   Marginal VFR   IFR   Intensive IFR   Very Intensive IFR
Visi :
Ceiling :
>= 8 km
>= 3000ft
5 to 8 km
1000 to 3000 ft
1500m to 5 km
500 to 1000 ft
800 to 1500m
200 to 500 ft
< 800m
< 200 ft
Symbols :   Thunderstorms  Fog  Heavy snow  Heavy precipitations  Wind > 20 kt
SIGMETs :     Misc.  Thunderstorms  Icing  Turbulence  Mountain Waves  Volcanic Ashes






- Airport Elevation : 219 ft
- IATA code : DNR


LFRD - Dinard

CURRENT METAR :
  • 240100Z AUTO 17008KT CAVOK 08/06 Q1024 NOSIG

EXPIRED METARs :
  • 240030Z AUTO 16007KT CAVOK 09/06 Q1025 NOSIG
  • 240000Z AUTO 16006KT CAVOK 09/07 Q1025 NOSIG
  • 232330Z AUTO 16007KT 9999 SCT021 09/07 Q1026 NOSIG
  • 232300Z AUTO 17008KT 9999 OVC022 10/07 Q1026 TEMPO 0500 FG VV///
  • 232230Z AUTO 17007KT 9999 OVC022 10/07 Q1026 TEMPO 0500 FG VV///

TAF TAF LFRD
Valid from the 24 at 00:00 until the 25 at 00:00 UTC


232300Z 2400/2424 17008KT 9999 FEW022
BECMG 2402/2404 17012KT
BECMG 2418/2420 BKN014
ATIS : +33 2 99 16 81 50



MET'MAP, your aeronautical weather chart ! - Copyright ORBIFLY December 2007 - Disclaimer

ORBIFLY MET'MAP TEAM :

Programming & Development : Alexandra Zaïnal
Concept & original design : Baudouin d'Aumeries
Assistance for programming : Marc-Olivier Méhu
Technical & hardware support : Manuel Goepfert

Contact : metmap@orbifly.com




SOURCES & CREDITS :

   NOAA